< Typhoon 196415 1964 Season Typhoon 196417 >
Typhoon 196416 (MARIE)
General InformationTrack Information on Google Maps || Disaster Info.ResourceGoogle EarthGE AnimationAtom FeedGeoJSON
Detalied Best Track (Time Zone = UTC)
Year Month Day Hour Lat. Long. Pressure (hPa) Wind (kt) Class Image Chart
1964 8 12 06 17.6 128.3 1000 0 2 -- Chart
1964 8 12 12 18.4 127.7 1004 0 2 -- Chart
1964 8 12 18 18.7 127.0 1002 0 2 -- Chart
1964 8 13 00 18.7 126.2 1002 0 2 -- Chart
1964 8 13 06 19.0 126.8 1002 0 2 -- Chart
1964 8 13 12 19.2 127.3 1002 0 2 -- Chart
1964 8 13 18 20.0 127.4 1002 0 2 -- Chart
1964 8 14 00 20.5 127.5 1002 0 2 -- Chart
1964 8 14 06 20.6 127.9 1001 0 2 -- Chart
1964 8 14 12 20.8 128.8 1002 0 2 -- Chart
1964 8 14 18 21.3 129.4 1001 0 2 -- Chart
1964 8 15 00 22.0 129.5 998 0 2 -- Chart
1964 8 15 06 22.1 130.0 996 0 2 -- Chart
1964 8 15 12 21.8 130.8 996 0 2 -- Chart
1964 8 15 18 21.7 131.8 996 0 2 -- Chart
1964 8 16 00 21.3 132.7 994 0 2 -- Chart
1964 8 16 06 21.6 133.4 992 0 2 -- Chart
1964 8 16 12 22.0 133.9 992 0 2 -- Chart
1964 8 16 18 22.5 134.1 992 0 2 -- Chart
1964 8 17 00 23.2 134.2 990 0 2 -- Chart
1964 8 17 06 24.2 134.2 985 0 9 -- Chart
1964 8 17 12 25.1 134.1 982 0 9 -- Chart
1964 8 17 18 26.0 133.2 982 0 9 -- Chart
1964 8 18 00 26.7 132.5 980 0 9 -- Chart
1964 8 18 06 27.4 131.5 984 0 9 -- Chart
1964 8 18 12 28.1 129.8 984 0 9 -- Chart
1964 8 18 18 27.9 128.0 984 0 9 -- Chart
1964 8 19 00 27.4 127.2 988 0 2 -- Chart
1964 8 19 06 26.7 126.8 986 0 2 -- Chart
1964 8 19 12 26.1 126.6 988 0 2 -- Chart
1964 8 19 18 25.4 127.4 985 0 2 -- Chart
1964 8 20 00 24.8 128.8 986 0 2 -- Chart
1964 8 20 06 24.5 129.5 986 0 2 -- Chart
Japan Meteorological Agency Best Track Data | Correction Date : 1989-06-01
< Typhoon 196415 1964 Season Typhoon 196417 >

Help